Time;durP1;ratioP1;P1;durP2;ratioP2;P2;SDS_P1;SDS_P2;PMS_P1;PMS_P2;Temp;Humidity;BMP_temperature;BMP_pressure;BME280_temperature;BME280_humidity;BME280_pressure;Samples;Min_cycle;Max_cycle;Signal;HPM_P1;HPM_P2
2021/11/09 00:02:18;;;;;;;2.67;1.30;;;17.70;66.80;;;;;;5122131;27;20012;-71
2021/11/09 00:04:51;;;;;;;7.45;3.53;;;17.70;66.90;;;;;;5117170;27;20016;-70
2021/11/09 00:12:23;;;;;;;7.07;3.57;;;17.60;67.00;;;;;;5118653;27;20019;-70
2021/11/09 00:14:49;;;;;;;10.80;4.55;;;17.70;66.90;;;;;;5118127;27;20275;-71
2021/11/09 00:17:16;;;;;;;8.40;3.28;;;17.60;66.80;;;;;;5118760;28;20039;-71
2021/11/09 00:19:42;;;;;;;7.00;3.42;;;17.60;66.90;;;;;;5118852;28;20022;-69
2021/11/09 00:22:09;;;;;;;6.47;3.80;;;17.50;67.20;;;;;;5116180;28;20494;-70
2021/11/09 00:24:35;;;;;;;9.40;3.88;;;17.40;67.20;;;;;;5116282;28;20019;-70
2021/11/09 00:27:02;;;;;;;8.20;3.55;;;17.40;67.30;;;;;;5122612;28;20023;-70
2021/11/09 00:29:29;;;;;;;14.25;5.40;;;17.40;67.20;;;;;;5120384;28;20036;-70
2021/11/09 00:31:55;;;;;;;10.57;4.88;;;17.30;67.20;;;;;;5119430;28;20015;-71
2021/11/09 00:34:22;;;;;;;10.50;4.68;;;17.30;67.30;;;;;;5117383;28;20344;-71
2021/11/09 00:36:48;;;;;;;9.48;5.55;;;17.30;67.60;;;;;;5123009;28;20506;-72
2021/11/09 00:39:15;;;;;;;8.77;5.20;;;17.20;67.70;;;;;;5123654;27;20435;-70
2021/11/09 00:41:43;;;;;;;10.57;4.40;;;17.20;67.70;;;;;;5124444;27;20124;-70
2021/11/09 00:44:09;;;;;;;8.77;4.32;;;17.20;68.00;;;;;;5127807;27;20016;-70
2021/11/09 00:46:36;;;;;;;7.90;5.53;;;17.20;68.10;;;;;;5126041;27;20039;-73
2021/11/09 00:49:02;;;;;;;10.80;4.22;;;17.20;68.30;;;;;;5126465;27;20019;-71
2021/11/09 00:51:29;;;;;;;9.18;3.75;;;17.20;68.30;;;;;;5120518;27;20035;-70
2021/11/09 00:53:55;;;;;;;7.03;3.17;;;17.20;68.50;;;;;;5124816;27;20106;-70
2021/11/09 00:56:22;;;;;;;7.15;3.10;;;17.20;68.40;;;;;;5122835;27;20493;-71
2021/11/09 00:58:48;;;;;;;6.20;3.30;;;17.20;68.40;;;;;;5127696;27;20493;-70
2021/11/09 01:01:15;;;;;;;5.15;3.83;;;17.20;68.50;;;;;;5122041;27;20055;-70
2021/11/09 01:03:42;;;;;;;7.68;3.13;;;17.10;68.40;;;;;;5120583;27;20623;-70
2021/11/09 01:06:09;;;;;;;7.72;3.55;;;17.10;68.30;;;;;;5117248;27;20019;-69
2021/11/09 01:08:35;;;;;;;4.20;2.90;;;17.10;68.40;;;;;;5119289;27;20023;-71
2021/11/09 01:11:02;;;;;;;4.45;3.03;;;17.10;68.60;;;;;;5119129;27;20018;-70
2021/11/09 01:13:30;;;;;;;4.10;2.70;;;17.00;69.10;;;;;;5125789;27;20028;-71
2021/11/09 01:15:58;;;;;;;3.90;2.58;;;17.00;68.90;;;;;;5120913;27;20046;-70
2021/11/09 01:18:38;;;;;;;3.47;2.25;;;17.00;69.00;;;;;;5123996;27;20382;-71
2021/11/09 01:21:06;;;;;;;3.10;1.48;;;17.00;68.90;;;;;;5127916;27;20065;-70
2021/11/09 01:23:33;;;;;;;6.95;2.30;;;16.90;69.30;;;;;;5122842;27;20217;-70
2021/11/09 01:26:01;;;;;;;5.38;2.85;;;17.00;70.00;;;;;;5118547;27;20030;-70
2021/11/09 01:28:27;;;;;;;5.60;2.65;;;16.90;69.80;;;;;;5124482;27;20366;-70
2021/11/09 01:30:54;;;;;;;5.18;3.10;;;16.90;69.50;;;;;;5124561;27;20023;-70
2021/11/09 01:33:22;;;;;;;5.93;3.25;;;17.00;69.40;;;;;;5123240;27;20031;-70
2021/11/09 01:35:48;;;;;;;8.88;3.05;;;17.00;69.20;;;;;;5126243;27;20073;-69
2021/11/09 01:38:15;;;;;;;7.72;3.47;;;17.00;69.00;;;;;;5123039;27;20019;-71
2021/11/09 01:40:42;;;;;;;5.93;3.03;;;17.00;69.10;;;;;;5114316;27;20015;-70
2021/11/09 01:43:10;;;;;;;5.70;2.65;;;16.90;69.20;;;;;;5121334;27;20385;-69
2021/11/09 01:45:36;;;;;;;6.18;2.95;;;16.90;69.30;;;;;;5127751;27;20027;-69
2021/11/09 01:48:03;;;;;;;8.57;2.75;;;16.90;69.50;;;;;;5126733;27;20018;-70
2021/11/09 01:50:34;;;;;;;7.20;3.05;;;16.90;69.80;;;;;;5120270;27;20543;-70
2021/11/09 01:53:01;;;;;;;5.20;3.70;;;16.80;70.00;;;;;;5123526;27;20026;-70
2021/11/09 01:55:29;;;;;;;6.38;2.67;;;16.90;70.20;;;;;;5123465;27;20118;-73
2021/11/09 01:57:57;;;;;;;4.50;2.53;;;16.90;70.20;;;;;;5125562;27;20375;-71
2021/11/09 02:00:30;;;;;;;5.90;2.60;;;16.90;69.90;;;;;;5119125;27;20015;-71
2021/11/09 02:02:57;;;;;;;5.22;2.72;;;16.90;70.00;;;;;;5125790;27;20030;-70
2021/11/09 02:05:24;;;;;;;4.45;1.90;;;16.90;70.10;;;;;;5126045;27;20023;-70
2021/11/09 02:07:53;;;;;;;5.05;1.45;;;16.90;70.20;;;;;;5125508;27;20015;-70
2021/11/09 02:10:24;;;;;;;5.13;2.00;;;16.90;70.20;;;;;;5122907;27;20385;-71
2021/11/09 02:12:51;;;;;;;3.50;2.00;;;17.00;70.40;;;;;;5114445;27;20027;-71
2021/11/09 02:15:18;;;;;;;4.10;1.45;;;17.00;70.50;;;;;;5114356;27;20015;-70
2021/11/09 02:17:46;;;;;;;4.78;1.60;;;17.00;70.70;;;;;;5120416;27;20016;-70
2021/11/09 02:20:18;;;;;;;6.75;1.67;;;17.00;70.60;;;;;;5118661;27;20165;-71
2021/11/09 02:22:44;;;;;;;2.03;1.52;;;17.00;70.70;;;;;;5113894;27;20015;-71
2021/11/09 02:25:15;;;;;;;3.65;1.75;;;17.10;70.70;;;;;;5120302;27;20011;-70
2021/11/09 02:27:42;;;;;;;5.57;1.33;;;17.10;70.70;;;;;;5117188;27;20014;-71
2021/11/09 02:30:13;;;;;;;2.65;1.33;;;17.10;70.80;;;;;;5119155;27;20016;-70
2021/11/09 02:32:40;;;;;;;2.15;1.38;;;17.10;70.70;;;;;;5119510;27;20011;-70
2021/11/09 02:35:09;;;;;;;2.97;2.17;;;17.10;70.70;;;;;;5116618;27;20020;-70
2021/11/09 02:37:35;;;;;;;6.10;3.65;;;17.10;69.90;;;;;;5121321;27;20543;-71
2021/11/09 02:40:04;;;;;;;9.20;5.30;;;17.10;69.70;;;;;;5119642;27;20532;-71
2021/11/09 02:42:41;;;;;;;12.77;7.50;;;17.00;69.70;;;;;;5121903;27;20020;-70
2021/11/09 02:45:17;;;;;;;15.10;7.10;;;17.00;70.00;;;;;;5121766;27;20051;-70
2021/11/09 02:47:44;;;;;;;;;;;17.00;70.00;;;;;;5118768;27;20019;-70
2021/11/09 02:50:12;;;;;;;12.88;8.90;;;16.90;70.20;;;;;;5118250;27;19990;-71
2021/11/09 02:52:48;;;;;;;15.98;8.13;;;16.90;70.60;;;;;;5121973;27;20530;-70
2021/11/09 02:55:17;;;;;;;11.68;7.13;;;16.90;71.00;;;;;;5122159;27;20072;-71
2021/11/09 03:03:09;;;;;;;8.60;5.43;;;16.90;70.80;;;;;;5116633;27;20023;-71
2021/11/09 03:08:28;;;;;;;7.25;4.40;;;16.90;71.40;;;;;;5122686;27;20110;-70
2021/11/09 03:10:56;;;;;;;10.32;4.40;;;16.90;71.60;;;;;;5121686;27;20028;-71
2021/11/09 03:13:23;;;;;;;3.88;3.38;;;17.00;72.00;;;;;;5119450;27;20130;-71
2021/11/09 03:15:51;;;;;;;10.63;4.25;;;17.00;72.10;;;;;;5123378;27;20032;-70
2021/11/09 03:18:23;;;;;;;4.93;3.08;;;17.00;72.00;;;;;;5117725;27;20011;-70
2021/11/09 03:40:25;;;;;;;4.60;1.75;;;17.20;72.20;;;;;;5119180;27;20050;-70
2021/11/09 03:45:37;;;;;;;5.88;2.17;;;17.30;72.20;;;;;;5116684;27;20603;-71
2021/11/09 03:48:09;;;;;;;4.90;1.80;;;17.30;72.20;;;;;;5115980;27;20091;-71
2021/11/09 03:50:38;;;;;;;6.15;1.85;;;17.30;71.90;;;;;;5116613;27;20027;-71
2021/11/09 03:53:13;;;;;;;7.47;2.47;;;17.40;71.90;;;;;;5119610;27;20019;-71
2021/11/09 03:55:55;;;;;;;4.07;2.00;;;17.40;72.20;;;;;;5123314;27;20096;-69
2021/11/09 03:58:26;;;;;;;14.98;11.88;;;17.40;72.20;;;;;;5096661;27;20390;-73
2021/11/09 06:38:10;;;;;;;5.38;1.40;;;18.60;67.90;;;;;;5131078;27;20824;-70
2021/11/09 06:40:36;;;;;;;6.18;1.10;;;19.20;65.20;;;;;;5130207;27;20039;-70
2021/11/09 06:43:03;;;;;;;5.43;1.30;;;19.40;64.70;;;;;;5127022;27;20018;-70
2021/11/09 06:45:29;;;;;;;4.78;1.35;;;19.50;64.30;;;;;;5127788;27;20027;-70
2021/11/09 06:47:56;;;;;;;5.60;1.48;;;19.60;63.60;;;;;;5126263;27;20024;-70
2021/11/09 06:50:23;;;;;;;8.35;2.33;;;19.70;63.40;;;;;;5126128;27;20115;-70
2021/11/09 06:52:50;;;;;;;6.32;1.52;;;19.90;63.30;;;;;;5129031;27;20028;-70
2021/11/09 06:55:16;;;;;;;6.97;1.75;;;20.00;62.70;;;;;;5127095;27;20031;-70
2021/11/09 06:57:44;;;;;;;4.75;1.48;;;20.10;61.70;;;;;;5127032;27;20008;-68
2021/11/09 07:00:17;;;;;;;7.78;1.58;;;20.30;61.30;;;;;;5126891;27;20092;-70
2021/11/09 07:02:45;;;;;;;9.18;1.90;;;20.40;60.90;;;;;;5129126;27;20023;-70
2021/11/09 07:05:13;;;;;;;4.18;1.20;;;20.50;59.80;;;;;;5125693;27;20011;-70
2021/11/09 07:07:40;;;;;;;15.65;1.85;;;20.70;59.30;;;;;;5133749;27;20049;-70
2021/11/09 07:10:08;;;;;;;8.20;1.10;;;20.80;59.40;;;;;;5126588;27;20027;-70
2021/11/09 07:12:36;;;;;;;1.58;0.98;;;20.90;59.10;;;;;;5126043;27;20425;-70
2021/11/09 07:15:03;;;;;;;3.63;1.55;;;21.00;58.50;;;;;;5124392;27;20479;-70
2021/11/09 07:17:31;;;;;;;2.05;1.00;;;21.20;58.50;;;;;;5128262;27;20026;-68
2021/11/09 07:19:58;;;;;;;2.83;1.08;;;21.30;58.00;;;;;;5127653;27;20019;-70
2021/11/09 07:22:26;;;;;;;4.32;1.10;;;21.40;57.10;;;;;;5129977;27;20342;-68
2021/11/09 07:24:52;;;;;;;1.73;0.68;;;21.50;57.00;;;;;;5127701;27;20629;-68
2021/11/09 07:27:19;;;;;;;3.25;1.27;;;21.70;55.10;;;;;;5126474;27;20496;-68
2021/11/09 07:29:50;;;;;;;2.72;1.05;;;21.70;54.50;;;;;;5129968;27;20023;-68
2021/11/09 07:32:21;;;;;;;2.00;0.82;;;21.90;55.00;;;;;;5121593;27;20031;-70
2021/11/09 07:34:48;;;;;;;2.50;0.80;;;22.00;53.90;;;;;;5113939;27;20039;-70
2021/11/09 07:37:14;;;;;;;2.53;0.82;;;22.00;52.30;;;;;;5117418;27;20045;-70
2021/11/09 07:39:42;;;;;;;2.40;0.68;;;22.00;52.10;;;;;;5113263;27;20020;-70
2021/11/09 07:42:08;;;;;;;1.45;0.57;;;22.00;52.20;;;;;;5114385;27;20027;-70
2021/11/09 07:44:35;;;;;;;5.68;0.60;;;21.90;51.60;;;;;;5115785;27;20031;-70
2021/11/09 07:47:02;;;;;;;2.63;0.73;;;21.90;51.20;;;;;;5121087;27;20030;-70
2021/11/09 07:49:28;;;;;;;1.88;0.43;;;21.70;50.70;;;;;;5115040;27;20024;-70
2021/11/09 07:51:55;;;;;;;2.60;0.88;;;21.70;50.40;;;;;;5113534;27;20460;-70
2021/11/09 07:54:26;;;;;;;0.75;0.60;;;21.50;50.60;;;;;;5114168;27;20102;-70
2021/11/09 07:57:07;;;;;;;3.22;1.00;;;21.50;51.20;;;;;;5114655;27;20055;-70
2021/11/09 07:59:52;;;;;;;1.30;0.57;;;21.50;51.60;;;;;;5110677;27;20113;-70
2021/11/09 08:02:32;;;;;;;3.65;1.05;;;21.40;52.20;;;;;;5113764;27;20035;-69
2021/11/09 08:05:04;;;;;;;4.32;1.48;;;21.40;53.40;;;;;;5110896;27;20057;-70
2021/11/09 08:07:34;;;;;;;5.80;1.45;;;21.40;54.30;;;;;;5114804;27;20016;-70
2021/11/09 08:10:01;;;;;;;3.05;1.00;;;21.40;54.00;;;;;;5111616;27;20512;-70
2021/11/09 08:12:28;;;;;;;8.75;1.35;;;21.40;54.40;;;;;;5114589;27;20020;-70
2021/11/09 08:14:54;;;;;;;5.82;2.63;;;21.40;54.20;;;;;;5112684;27;20012;-70
2021/11/09 08:17:21;;;;;;;3.95;1.20;;;21.30;54.00;;;;;;5112190;27;20063;-70
2021/11/09 08:19:48;;;;;;;4.25;0.98;;;21.30;54.00;;;;;;5111822;28;20023;-70
2021/11/09 08:22:15;;;;;;;4.32;1.40;;;21.30;54.60;;;;;;5114516;27;20092;-70
2021/11/09 08:24:42;;;;;;;6.70;1.80;;;21.30;53.70;;;;;;5114351;27;20076;-70
2021/11/09 08:27:11;;;;;;;8.07;2.03;;;21.40;53.50;;;;;;5114879;27;20282;-70
2021/11/09 08:29:38;;;;;;;4.65;1.40;;;21.40;53.20;;;;;;5113931;27;20019;-70
2021/11/09 08:32:09;;;;;;;10.43;1.38;;;21.50;52.90;;;;;;5111436;27;20475;-70
2021/11/09 08:34:36;;;;;;;4.80;1.02;;;21.60;52.30;;;;;;5114844;27;20028;-70
2021/11/09 08:37:04;;;;;;;5.65;1.55;;;21.70;52.10;;;;;;5112846;27;20501;-70
2021/11/09 08:44:52;;;;;;;9.25;1.42;;;22.20;51.90;;;;;;5113880;27;20414;-70
2021/11/09 08:47:28;;;;;;;2.90;1.10;;;22.40;51.20;;;;;;5110803;27;20028;-70
2021/11/09 08:49:55;;;;;;;7.60;1.30;;;22.60;50.30;;;;;;5105572;28;20016;-70
2021/11/09 08:52:24;;;;;;;2.05;0.80;;;22.60;49.10;;;;;;5112863;27;20035;-70
2021/11/09 09:01:14;;;;;;;3.88;0.98;;;22.70;48.90;;;;;;5030677;28;20037;-70
2021/11/09 09:04:21;;;;;;;1.45;1.20;;;22.80;48.60;;;;;;5111169;27;21813;-70
2021/11/09 09:07:30;;;;;;;1.85;1.10;;;22.90;48.10;;;;;;5116903;27;20105;-70
2021/11/09 09:09:57;;;;;;;1.55;0.93;;;23.10;48.20;;;;;;5110466;27;20035;-70
2021/11/09 09:12:29;;;;;;;1.50;0.98;;;23.20;48.10;;;;;;5111177;27;20043;-70
2021/11/09 09:14:56;;;;;;;5.68;1.85;;;23.30;49.10;;;;;;5112956;27;20662;-70
2021/11/09 09:17:24;;;;;;;3.20;1.15;;;23.50;48.70;;;;;;5113416;27;20088;-70
2021/11/09 09:20:00;;;;;;;1.48;1.30;;;23.50;48.40;;;;;;5109204;28;20124;-70
2021/11/09 09:22:36;;;;;;;4.97;1.30;;;23.50;48.00;;;;;;5110925;27;20031;-69
2021/11/09 09:25:17;;;;;;;6.22;1.75;;;23.60;48.20;;;;;;5105597;28;20458;-70
2021/11/09 09:57:25;;;;;;;5.38;1.45;;;24.00;47.70;;;;;;5111762;27;20046;-70
2021/11/09 09:59:53;;;;;;;2.08;1.20;;;24.10;47.80;;;;;;5108799;27;20168;-70
2021/11/09 10:02:26;;;;;;;9.77;1.42;;;24.20;47.30;;;;;;5112631;27;20034;-70
2021/11/09 10:04:54;;;;;;;2.10;1.67;;;24.10;47.40;;;;;;5112571;27;20019;-70
2021/11/09 10:07:47;;;;;;;6.00;1.20;;;24.10;47.80;;;;;;5112260;27;20106;-70
2021/11/09 10:10:20;;;;;;;6.00;1.63;;;24.20;50.00;;;;;;5107700;28;20032;-70
2021/11/09 10:13:20;;;;;;;3.40;1.15;;;24.20;48.50;;;;;;5107644;28;20642;-70
2021/11/09 10:15:57;;;;;;;2.63;0.70;;;24.20;48.20;;;;;;5108701;28;20031;-70
2021/11/09 10:18:24;;;;;;;4.03;0.90;;;24.20;47.70;;;;;;5110521;28;20377;-70
2021/11/09 10:20:59;;;;;;;4.65;0.90;;;24.20;47.40;;;;;;5105661;28;20493;-71
2021/11/09 10:23:31;;;;;;;2.53;1.13;;;24.10;47.80;;;;;;5109750;28;20486;-68
2021/11/09 10:26:15;;;;;;;4.32;1.15;;;24.00;47.40;;;;;;5113407;28;20481;-70
2021/11/09 10:28:42;;;;;;;2.92;1.20;;;24.00;48.30;;;;;;5118393;28;20028;-70
2021/11/09 10:31:11;;;;;;;1.45;1.20;;;23.90;47.60;;;;;;5115473;27;20039;-70
2021/11/09 10:33:48;;;;;;;4.50;1.10;;;23.90;48.00;;;;;;5111046;28;20028;-70
2021/11/09 10:36:34;;;;;;;83.18;74.25;;;23.90;48.30;;;;;;5109434;28;20571;-72
2021/11/09 10:39:19;;;;;;;63.78;56.75;;;23.90;47.80;;;;;;5109973;28;20036;-71
2021/11/09 10:42:10;;;;;;;18.83;10.95;;;24.00;47.40;;;;;;5109342;28;20643;-72
2021/11/09 10:44:40;;;;;;;4.88;1.85;;;24.10;47.20;;;;;;5106637;28;20033;-71
2021/11/09 10:47:23;;;;;;;8.93;1.80;;;24.20;47.20;;;;;;5102243;28;20022;-70
2021/11/09 10:50:00;;;;;;;4.63;1.20;;;24.20;46.90;;;;;;5103890;28;20058;-71
2021/11/09 10:52:36;;;;;;;27.05;6.95;;;24.30;46.80;;;;;;5098289;28;20816;-71
2021/11/09 10:55:58;;;;;;;6.72;1.45;;;24.30;47.30;;;;;;5098995;28;20037;-69
2021/11/09 11:06:09;;;;;;;6.53;1.60;;;24.50;44.70;;;;;;5108189;28;20161;-70
2021/11/09 11:08:37;;;;;;;3.95;0.95;;;24.50;45.50;;;;;;5110999;28;20015;-70
2021/11/09 11:11:18;;;;;;;1.20;0.90;;;24.50;45.90;;;;;;5114254;27;20031;-70
2021/11/09 11:13:46;;;;;;;5.32;1.00;;;24.40;45.70;;;;;;5117325;27;20030;-69
2021/11/09 11:16:16;;;;;;;7.10;3.15;;;24.40;45.20;;;;;;5114510;27;20410;-70
2021/11/09 11:18:46;;;;;;;3.97;1.10;;;24.50;45.50;;;;;;5108100;27;20677;-70
2021/11/09 11:21:16;;;;;;;8.82;1.25;;;24.50;45.20;;;;;;5109595;27;20087;-71
2021/11/09 11:23:44;;;;;;;3.00;0.85;;;24.60;44.70;;;;;;5112335;27;20027;-72
2021/11/09 11:26:12;;;;;;;3.72;1.50;;;24.60;45.40;;;;;;5111638;27;20053;-71
2021/11/09 11:28:42;;;;;;;3.35;0.90;;;24.60;44.70;;;;;;5110484;27;20382;-70
2021/11/09 11:31:10;;;;;;;3.38;1.40;;;24.60;44.50;;;;;;5112082;27;20035;-71
2021/11/09 11:33:37;;;;;;;5.60;0.98;;;24.60;45.00;;;;;;5109126;27;20057;-71
2021/11/09 11:36:04;;;;;;;2.83;0.85;;;24.60;44.20;;;;;;5108985;28;20040;-72
2021/11/09 11:38:32;;;;;;;4.68;0.98;;;24.70;44.90;;;;;;5114361;27;20012;-72
2021/11/09 11:41:02;;;;;;;1.63;0.98;;;24.70;44.30;;;;;;5111492;28;20583;-71
2021/11/09 11:43:47;;;;;;;4.07;1.55;;;24.70;45.20;;;;;;5108756;27;20083;-72
2021/11/09 11:46:32;;;;;;;1.83;0.93;;;24.80;44.40;;;;;;5108622;28;20434;-72
2021/11/09 11:48:59;;;;;;;5.40;0.90;;;24.70;44.40;;;;;;5114465;27;20075;-70
2021/11/09 11:51:26;;;;;;;10.50;1.40;;;24.60;45.10;;;;;;5110792;27;20041;-69
2021/11/09 11:53:56;;;;;;;6.18;1.15;;;24.60;45.30;;;;;;5110365;27;20016;-70
2021/11/09 11:56:52;;;;;;;2.92;0.80;;;24.60;45.80;;;;;;5114621;27;20023;-70
2021/11/09 11:59:24;;;;;;;1.77;0.93;;;24.60;46.00;;;;;;5111127;28;20108;-70
2021/11/09 12:02:04;;;;;;;2.28;1.15;;;24.70;45.70;;;;;;5114131;27;20027;-70
2021/11/09 12:04:43;;;;;;;3.45;0.90;;;24.80;45.10;;;;;;5104902;28;20016;-70
2021/11/09 12:07:11;;;;;;;2.90;0.82;;;24.90;44.80;;;;;;5112735;27;20110;-71
2021/11/09 14:25:44;;;;;;;5.95;2.88;;;25.20;43.20;;;;;;5009275;28;20413;-70
2021/11/09 14:28:11;;;;;;;4.00;1.20;;;25.80;43.40;;;;;;5022167;28;20028;-68
2021/11/09 14:30:39;;;;;;;13.48;1.55;;;25.80;43.40;;;;;;5014672;28;20014;-68
2021/11/09 14:33:13;;;;;;;25.50;11.32;;;25.90;43.30;;;;;;5014302;28;20038;-76
2021/11/09 14:35:40;;;;;;;13.23;6.43;;;25.80;43.20;;;;;;5004592;28;20018;-70
2021/11/09 14:38:10;;;;;;;9.40;2.92;;;25.80;43.30;;;;;;5010968;28;20026;-69
2021/11/09 14:40:44;;;;;;;7.15;2.03;;;25.90;43.30;;;;;;5011670;28;20018;-74
2021/11/09 14:43:26;;;;;;;2.47;1.00;;;25.90;43.30;;;;;;4999877;28;20037;-78
2021/11/09 14:46:05;;;;;;;1.92;1.38;;;25.90;42.80;;;;;;5009543;28;20040;-68
2021/11/09 14:48:52;;;;;;;2.85;1.58;;;25.90;42.70;;;;;;4994762;28;20481;-68
2021/11/09 14:51:34;;;;;;;1.77;1.13;;;25.90;42.40;;;;;;5013154;28;20117;-70
2021/11/09 14:54:15;;;;;;;38.10;21.52;;;25.90;42.30;;;;;;5007932;28;20057;-76
2021/11/09 14:56:42;;;;;;;14.05;3.03;;;25.90;41.80;;;;;;5011189;28;20113;-72
2021/11/09 14:59:29;;;;;;;2.22;1.40;;;25.90;41.80;;;;;;5005908;28;20101;-69
2021/11/09 15:02:05;;;;;;;10.13;1.20;;;25.80;41.50;;;;;;5004295;28;20018;-75
2021/11/09 15:36:51;;;;;;;4.82;1.30;;;25.40;41.80;;;;;;4991204;28;20033;-68
2021/11/09 15:39:21;;;;;;;3.25;1.20;;;25.40;41.90;;;;;;4986708;28;20069;-72
2021/11/09 15:41:48;;;;;;;10.20;1.13;;;25.30;41.60;;;;;;4983789;28;20046;-64
2021/11/09 15:44:16;;;;;;;12.48;2.75;;;25.30;41.60;;;;;;4991170;28;20508;-73
2021/11/09 15:46:44;;;;;;;5.85;1.23;;;25.20;41.70;;;;;;4990522;28;20022;-69
2021/11/09 15:49:11;;;;;;;3.17;0.82;;;25.20;42.10;;;;;;4990792;28;20026;-64
2021/11/09 15:51:40;;;;;;;5.45;1.80;;;25.10;42.40;;;;;;4990473;28;20569;-65
2021/11/09 15:54:11;;;;;;;3.85;1.48;;;25.00;42.60;;;;;;4991118;28;20034;-76
2021/11/09 15:56:39;;;;;;;3.13;1.30;;;25.00;43.00;;;;;;4992716;28;20091;-78
2021/11/09 15:59:07;;;;;;;5.30;1.55;;;25.00;43.10;;;;;;4988721;28;20029;-78
2021/11/09 16:01:34;;;;;;;9.15;2.47;;;25.00;43.10;;;;;;4997238;28;20030;-76
2021/11/09 16:04:03;;;;;;;3.42;1.17;;;25.00;43.10;;;;;;4986086;28;20097;-75
2021/11/09 16:06:31;;;;;;;1.73;0.95;;;25.00;43.40;;;;;;4989914;28;20019;-77
2021/11/09 16:08:57;;;;;;;5.25;1.20;;;24.90;43.70;;;;;;5001109;28;20035;-75
2021/11/09 16:11:30;;;;;;;4.43;0.75;;;24.90;43.90;;;;;;4991352;28;20019;-71
2021/11/09 16:13:57;;;;;;;3.85;1.52;;;24.80;44.20;;;;;;4994158;28;20175;-74
2021/11/09 16:16:23;;;;;;;5.05;1.13;;;24.70;44.80;;;;;;4991963;28;20030;-73
2021/11/09 16:18:50;;;;;;;4.80;1.10;;;24.60;44.90;;;;;;4989700;28;20526;-72
2021/11/09 16:21:16;;;;;;;1.48;1.13;;;24.50;45.10;;;;;;4992656;28;20467;-75
2021/11/09 16:23:43;;;;;;;2.25;0.98;;;24.40;45.30;;;;;;4993165;28;20045;-69
2021/11/09 16:26:10;;;;;;;3.33;1.30;;;24.30;45.50;;;;;;4987313;28;20433;-67
2021/11/09 16:28:37;;;;;;;3.22;1.33;;;24.30;45.80;;;;;;4996375;28;20015;-71
2021/11/09 16:31:05;;;;;;;5.68;1.02;;;24.20;45.40;;;;;;4996799;28;20045;-75
2021/11/09 16:33:38;;;;;;;3.20;1.40;;;24.20;45.70;;;;;;4992318;28;20035;-71
2021/11/09 16:36:17;;;;;;;2.03;0.98;;;24.20;45.60;;;;;;4989872;28;20025;-73
2021/11/09 16:38:50;;;;;;;2.33;1.40;;;24.20;46.00;;;;;;4985275;28;20460;-72
2021/11/09 16:41:23;;;;;;;6.32;1.00;;;24.10;47.10;;;;;;5004727;28;20092;-69
2021/11/09 16:43:59;;;;;;;7.05;1.25;;;24.10;46.90;;;;;;4998917;28;20030;-68
2021/11/09 16:51:48;;;;;;;2.47;0.80;;;23.90;46.00;;;;;;4993092;28;20061;-67
2021/11/09 17:02:03;;;;;;;4.38;0.88;;;23.60;47.10;;;;;;4998131;28;20026;-77
2021/11/09 17:07:48;;;;;;;3.25;1.02;;;23.40;47.80;;;;;;4997134;28;20462;-68
2021/11/09 18:13:24;;;;;;;13.80;1.25;;;22.50;50.60;;;;;;4988327;28;20403;-66
2021/11/09 18:21:21;;;;;;;2.42;1.05;;;22.30;51.00;;;;;;4989059;28;20045;-65
2021/11/09 18:23:51;;;;;;;2.05;0.90;;;22.30;51.10;;;;;;4994877;28;20077;-66
2021/11/09 18:26:17;;;;;;;5.63;1.20;;;22.20;51.10;;;;;;4995357;28;20437;-70
2021/11/09 18:28:45;;;;;;;3.22;1.00;;;22.20;51.20;;;;;;5000551;28;20047;-66
2021/11/09 18:31:12;;;;;;;4.20;1.15;;;22.10;51.10;;;;;;4986419;28;20496;-66
2021/11/09 18:33:48;;;;;;;3.28;1.40;;;22.10;51.30;;;;;;5004450;28;20034;-74
2021/11/09 18:36:18;;;;;;;1.98;0.77;;;22.00;51.30;;;;;;5012640;28;20179;-65
2021/11/09 18:38:44;;;;;;;3.45;1.65;;;22.00;51.30;;;;;;4981822;28;20042;-68
2021/11/09 18:41:14;;;;;;;2.03;1.90;;;22.00;51.30;;;;;;4987219;28;20027;-67
2021/11/09 18:43:49;;;;;;;4.65;1.70;;;22.00;51.50;;;;;;4982765;28;20037;-69
2021/11/09 18:46:23;;;;;;;2.40;1.60;;;21.90;51.70;;;;;;4989997;28;20022;-68
2021/11/09 18:48:56;;;;;;;1.60;1.42;;;21.80;51.90;;;;;;4988086;28;20016;-67
2021/11/09 18:51:24;;;;;;;4.57;1.52;;;21.80;52.00;;;;;;4989259;28;20019;-69
2021/11/09 18:53:51;;;;;;;3.90;1.70;;;21.80;52.00;;;;;;4983271;28;20509;-76
2021/11/09 18:56:17;;;;;;;6.03;2.20;;;21.70;52.40;;;;;;5003589;28;20038;-68
2021/11/09 18:58:45;;;;;;;24.33;19.33;;;21.70;52.70;;;;;;4987892;28;20034;-72
2021/11/09 19:01:13;;;;;;;41.20;24.55;;;21.70;53.20;;;;;;4992932;28;20516;-72
2021/11/09 19:03:40;;;;;;;5.85;3.83;;;21.70;53.40;;;;;;4996870;28;20082;-68
2021/11/09 19:06:07;;;;;;;6.65;3.92;;;21.70;53.60;;;;;;5001759;28;20494;-68
2021/11/09 19:08:33;;;;;;;5.93;2.78;;;21.70;53.60;;;;;;4993637;28;20376;-77
2021/11/09 19:11:00;;;;;;;4.80;2.75;;;21.60;53.70;;;;;;4998810;28;20526;-76
2021/11/09 19:13:27;;;;;;;5.18;1.90;;;21.60;53.60;;;;;;4995905;28;20035;-68
2021/11/09 19:15:54;;;;;;;3.20;1.83;;;21.60;53.70;;;;;;4995698;28;20027;-67
2021/11/09 19:18:21;;;;;;;2.80;1.83;;;21.60;53.70;;;;;;4990918;28;20481;-74
2021/11/09 19:20:52;;;;;;;5.43;1.92;;;21.60;53.80;;;;;;4988939;28;20084;-77
2021/11/09 19:23:18;;;;;;;3.60;1.80;;;21.60;54.00;;;;;;4993781;28;20056;-68
2021/11/09 19:25:48;;;;;;;2.08;1.88;;;21.50;54.10;;;;;;4990022;28;20550;-75
2021/11/09 19:28:15;;;;;;;4.97;2.22;;;21.50;54.20;;;;;;4992678;28;20075;-74
2021/11/09 19:30:42;;;;;;;6.53;2.25;;;21.40;54.30;;;;;;4997505;28;20083;-69
2021/11/09 19:33:09;;;;;;;4.38;2.40;;;21.40;54.40;;;;;;5000543;28;20443;-73
2021/11/09 19:35:36;;;;;;;23.35;19.27;;;21.40;54.50;;;;;;4995844;28;20396;-69
2021/11/09 19:38:05;;;;;;;28.45;23.35;;;21.40;54.70;;;;;;4990145;28;20022;-67
2021/11/09 19:40:32;;;;;;;8.05;4.32;;;21.40;54.70;;;;;;4985659;28;20018;-68
2021/11/09 19:42:59;;;;;;;6.47;2.72;;;21.40;54.80;;;;;;4992063;28;20022;-67
2021/11/09 19:45:31;;;;;;;4.40;2.45;;;21.30;54.80;;;;;;4999233;28;20093;-68
2021/11/09 19:48:07;;;;;;;5.95;3.25;;;21.30;55.00;;;;;;4993594;28;20121;-72
2021/11/09 19:50:36;;;;;;;3.85;2.50;;;21.30;55.10;;;;;;4991417;28;20476;-69
2021/11/09 19:53:06;;;;;;;6.82;4.10;;;21.30;55.30;;;;;;4990389;28;20045;-67
2021/11/09 19:55:41;;;;;;;4.82;2.63;;;21.20;55.40;;;;;;4990677;28;20105;-66
2021/11/09 19:58:12;;;;;;;7.35;3.20;;;21.20;55.60;;;;;;5005055;28;20123;-67
2021/11/09 20:00:47;;;;;;;6.03;3.60;;;21.20;55.70;;;;;;4995688;28;20028;-70
2021/11/09 20:03:15;;;;;;;5.07;3.38;;;21.10;55.90;;;;;;4993649;28;20038;-73
2021/11/09 20:05:45;;;;;;;4.85;3.33;;;21.10;56.00;;;;;;4991670;28;20065;-75
2021/11/09 20:08:14;;;;;;;6.32;2.97;;;21.10;56.20;;;;;;4997608;28;20015;-76
2021/11/09 22:38:22;;;;;;;6.40;3.83;;;19.50;68.30;;;;;;5056648;28;21190;-73
2021/11/09 22:40:49;;;;;;;7.93;2.97;;;19.70;67.60;;;;;;5051409;28;20102;-74
2021/11/09 22:43:15;;;;;;;5.63;3.00;;;19.80;67.50;;;;;;5050872;28;20022;-73
2021/11/09 22:45:42;;;;;;;5.82;3.08;;;19.80;67.30;;;;;;5029928;28;20017;-74
2021/11/09 22:48:09;;;;;;;6.05;3.58;;;19.80;67.10;;;;;;5045976;28;20495;-74
2021/11/09 22:50:35;;;;;;;6.32;3.55;;;19.80;67.00;;;;;;5047848;28;20025;-74
2021/11/09 22:53:02;;;;;;;8.60;3.72;;;19.80;66.80;;;;;;5028315;28;20084;-73
2021/11/09 22:55:28;;;;;;;7.68;3.10;;;19.80;66.80;;;;;;5047854;28;20353;-73
2021/11/09 22:57:55;;;;;;;7.07;2.95;;;19.70;66.70;;;;;;5048710;28;20037;-74
2021/11/09 23:00:28;;;;;;;3.58;2.15;;;19.80;66.70;;;;;;5048374;28;20503;-73
2021/11/09 23:02:55;;;;;;;6.93;3.20;;;19.70;66.70;;;;;;5047794;28;20026;-73
2021/11/09 23:05:23;;;;;;;4.65;2.45;;;19.70;66.70;;;;;;5044156;28;20383;-73
2021/11/09 23:07:50;;;;;;;9.15;2.72;;;19.70;66.80;;;;;;5047510;28;20056;-73
2021/11/09 23:10:17;;;;;;;6.70;2.53;;;19.70;66.80;;;;;;5047958;28;20504;-73
2021/11/09 23:12:44;;;;;;;8.00;2.42;;;19.60;66.70;;;;;;5051404;28;20082;-73
2021/11/09 23:15:12;;;;;;;5.88;2.40;;;19.60;66.90;;;;;;5029173;28;20061;-73
2021/11/09 23:17:39;;;;;;;8.45;2.30;;;19.60;67.70;;;;;;5048614;28;20044;-73
2021/11/09 23:20:07;;;;;;;8.82;5.20;;;19.60;67.30;;;;;;5048777;28;20052;-73
2021/11/09 23:22:35;;;;;;;4.13;2.63;;;19.60;67.40;;;;;;5047271;28;20059;-74
2021/11/09 23:25:02;;;;;;;6.43;2.80;;;19.50;67.30;;;;;;5050138;28;20028;-73
2021/11/09 23:27:29;;;;;;;8.85;2.08;;;19.50;67.40;;;;;;5051706;28;20069;-74
2021/11/09 23:29:56;;;;;;;4.28;2.50;;;19.50;67.40;;;;;;5042630;28;20032;-74
2021/11/09 23:32:22;;;;;;;8.10;2.45;;;19.50;67.40;;;;;;5047991;28;20108;-74
2021/11/09 23:34:49;;;;;;;5.95;2.95;;;19.40;67.40;;;;;;5051751;28;20090;-73
2021/11/09 23:37:15;;;;;;;5.80;2.67;;;19.50;67.70;;;;;;5045774;28;20052;-73
2021/11/09 23:39:42;;;;;;;5.28;2.25;;;19.40;67.90;;;;;;5032029;28;20495;-74
2021/11/09 23:42:09;;;;;;;12.38;3.15;;;19.40;67.80;;;;;;5034205;28;20507;-75
2021/11/09 23:44:36;;;;;;;9.05;2.83;;;19.40;67.80;;;;;;5035506;28;20017;-73